Flight Track Log - Related Links

Times and Time Zones

All times are in EDT time to prevent confusion due to time zone crossing. See the EJM949 flight status page for this flight to view local times or setup timezone preferences in your user account.

Time Position Orientation Groundspeed Altitude Reporting Facility
EDT Latitude Longitude Course Direction KTS MPH feet Rate Location/Type
Mon 02:57:00 AM 59.5960 -90.2814 33° Northeast  Level Estimated
Mon 02:58:00 AM 59.6682 -90.0586 57° Northeast  Level Estimated
Mon 02:59:00 AM 59.7401 -89.8348 57° Northeast  Level Estimated
Mon 03:00:00 AM 59.8115 -89.6100 58° Northeast  Level Estimated
Mon 03:01:00 AM 59.8826 -89.3843 58° Northeast  Level Estimated
Mon 03:02:00 AM 59.9533 -89.1576 58° Northeast  Level Estimated
Mon 03:03:00 AM 60.0236 -88.9300 58° Northeast  Level Estimated
Mon 03:04:00 AM 60.0936 -88.7014 58° Northeast  Level Estimated
Mon 03:05:00 AM 60.1631 -88.4718 59° Northeast  Level Estimated
Mon 03:06:00 AM 60.2322 -88.2412 59° Northeast  Level Estimated
Mon 03:07:00 AM 60.3009 -88.0097 59° Northeast  Level Estimated
Mon 03:08:00 AM 60.3692 -87.7772 59° Northeast  Level Estimated
Mon 03:09:00 AM 60.4371 -87.5437 59° Northeast  Level Estimated
Mon 03:10:00 AM 60.5046 -87.3092 60° Northeast  Level Estimated
Mon 03:11:00 AM 60.5717 -87.0738 60° Northeast  Level Estimated
Mon 03:12:00 AM 60.6384 -86.8374 60° Northeast  Level Estimated
Mon 03:13:00 AM 60.7046 -86.6000 60° Northeast  Level Estimated
Mon 03:14:00 AM 60.7705 -86.3617 60° Northeast  Level Estimated
Mon 03:15:00 AM 60.8359 -86.1223 61° Northeast  Level Estimated
Mon 03:16:00 AM 60.9008 -85.8820 61° Northeast  Level Estimated
Mon 03:17:00 AM 60.9654 -85.6407 61° Northeast  Level Estimated
Mon 03:18:00 AM 61.0295 -85.3985 61° Northeast  Level Estimated
Mon 03:19:00 AM 61.0932 -85.1552 61° Northeast  Level Estimated
Mon 03:20:00 AM 61.1564 -84.9110 62° Northeast  Level Estimated
Mon 03:21:00 AM 61.2192 -84.6658 62° Northeast  Level Estimated
Mon 03:22:00 AM 61.2816 -84.4196 62° Northeast  Level Estimated
Mon 03:23:00 AM 61.3435 -84.1724 62° Northeast  Level Estimated
Mon 03:24:00 AM 61.4049 -83.9243 63° Northeast  Level Estimated
Mon 03:25:00 AM 61.4659 -83.6752 63° Northeast  Level Estimated
Mon 03:26:00 AM 61.5265 -83.4251 63° Northeast  Level Estimated
Mon 03:27:00 AM 61.5866 -83.1741 63° Northeast  Level Estimated
Mon 03:28:00 AM 61.6462 -82.9220 63° Northeast  Level Estimated
Mon 03:29:00 AM 61.7054 -82.6690 64° Northeast  Level Estimated
Mon 03:30:00 AM 61.7640 -82.4151 64° Northeast  Level Estimated
Mon 03:31:00 AM 61.8223 -82.1601 64° Northeast  Level Estimated
Mon 03:32:00 AM 61.8800 -81.9042 64° Northeast  Level Estimated
Mon 03:33:00 AM 61.9373 -81.6474 65° Northeast  Level Estimated
Mon 03:34:00 AM 61.9941 -81.3896 65° Northeast  Level Estimated
Mon 03:35:00 AM 62.0504 -81.1308 65° Northeast  Level Estimated
Mon 03:36:00 AM 62.1062 -80.8710 65° Northeast  Level Estimated
Mon 03:37:00 AM 62.1615 -80.6104 65° Northeast  Level Estimated
Mon 03:38:00 AM 62.2164 -80.3487 66° East  Level Estimated
Mon 03:39:00 AM 62.2707 -80.0861 66° East  Level Estimated
Mon 03:40:00 AM 62.3246 -79.8226 66° East  Level Estimated
Mon 03:41:00 AM 62.3779 -79.5581 66° East  Level Estimated
Mon 03:42:00 AM 62.4308 -79.2927 67° East  Level Estimated
Mon 03:43:00 AM 62.4831 -79.0264 67° East  Level Estimated
Mon 03:44:00 AM 62.5350 -78.7591 67° East  Level Estimated
Mon 03:45:00 AM 62.5863 -78.4909 67° East  Level Estimated
Mon 03:46:00 AM 62.6371 -78.2217 68° East  Level Estimated
Mon 03:47:00 AM 62.6874 -77.9517 68° East  Level Estimated
Mon 03:48:00 AM 62.7371 -77.6807 68° East  Level Estimated
Mon 03:49:00 AM 62.7864 -77.4089 68° East  Level Estimated
Mon 03:50:00 AM 62.8351 -77.1361 69° East  Level Estimated
Mon 03:51:00 AM 62.8833 -76.8624 69° East  Level Estimated
Mon 03:52:00 AM 62.9309 -76.5878 69° East  Level Estimated
Mon 03:53:00 AM 62.9780 -76.3123 69° East  Level Estimated
Mon 03:54:00 AM 63.0246 -76.0360 70° East  Level Estimated
Mon 03:55:00 AM 63.0706 -75.7588 70° East  Level Estimated
Mon 03:56:00 AM 63.1161 -75.4807 70° East  Level Estimated
Mon 03:57:00 AM 63.1611 -75.2017 70° East  Level Estimated
Mon 03:58:00 AM 63.2055 -74.9219 70° East  Level Estimated
Mon 03:59:00 AM 63.2494 -74.6412 71° East  Level Estimated
Mon 04:00:00 AM 63.2926 -74.3596 71° East  Level Estimated
Mon 04:01:00 AM 63.3354 -74.0773 71° East  Level Estimated
Mon 04:02:00 AM 63.3776 -73.7941 72° East  Level Estimated
Mon 04:03:00 AM 63.4192 -73.5100 72° East  Level Estimated
Mon 04:04:00 AM 63.4602 -73.2252 72° East  Level Estimated
Mon 04:05:00 AM 63.5007 -72.9395 72° East  Level Estimated
Mon 04:06:00 AM 63.5406 -72.6530 73° East  Level Estimated
Mon 04:07:00 AM 63.5800 -72.3657 73° East  Level Estimated
Mon 04:08:00 AM 63.6187 -72.0777 73° East  Level Estimated
Mon 04:09:00 AM 63.6569 -71.7888 73° East  Level Estimated
Mon 04:10:00 AM 63.6945 -71.4992 74° East  Level Estimated
Mon 04:11:00 AM 63.7315 -71.2088 74° East  Level Estimated
Mon 04:12:00 AM 63.7680 -70.9177 74° East  Level Estimated
Mon 04:13:00 AM 63.8038 -70.6258 74° East  Level Estimated
Mon 04:14:00 AM 63.8391 -70.3332 75° East  Level Estimated
Mon 04:15:00 AM 63.8738 -70.0398 75° East  Level Estimated
Mon 04:15:06 AM 67.2333 -73.2167 76° East 500 575 45,000  Level Edmonton Center
Mon 04:16:00 AM 63.9078 -69.7458 75° East  Level Estimated
Mon 04:16:06 AM 67.2500 -72.8833 82° East 480 552 45,000  Level Edmonton Center
Mon 04:17:00 AM 63.9413 -69.4510 75° East  Level Estimated
Mon 04:17:06 AM 67.2833 -72.5333 76° East 490 564 45,000  Level Edmonton Center
Mon 04:18:00 AM 63.9742 -69.1555 76° East  Level Estimated
Mon 04:18:06 AM 67.3167 -72.2000 75° East 490 564 45,000  Level Edmonton Center
Mon 04:19:00 AM 64.0064 -68.8594 76° East  Level Estimated
Mon 04:19:06 AM 67.3333 -71.8167 83° East 480 552 45,000  Level Edmonton Center
Mon 04:20:00 AM 64.0381 -68.5625 76° East  Level Estimated
Mon 04:20:06 AM 67.3667 -71.4833 75° East 480 552 45,000  Level Edmonton Center
Mon 04:22:00 AM 67.4241 -70.8377 77° East  Level FlightAware Approximate
Mon 04:29:00 AM 67.6130 -68.4339 77° East  Level FlightAware Approximate
Mon 04:30:00 AM 67.6371 -68.0875 79° East  Level FlightAware Approximate
Mon 04:31:00 AM 67.6604 -67.7403 80° East  Level FlightAware Approximate
Mon 04:32:00 AM 67.6830 -67.3925 80° East  Level FlightAware Approximate
Mon 04:33:00 AM 67.7049 -67.0441 80° East  Level FlightAware Approximate
Mon 04:34:00 AM 67.7260 -66.6950 81° East  Level FlightAware Approximate
Mon 04:35:00 AM 67.7463 -66.3453 81° East  Level FlightAware Approximate
Mon 04:36:00 AM 67.7659 -65.9950 81° East  Level FlightAware Approximate
Mon 04:37:00 AM 67.7848 -65.6441 82° East  Level FlightAware Approximate
Mon 04:38:00 AM 67.8029 -65.2927 82° East  Level FlightAware Approximate
Mon 04:39:00 AM 67.8202 -64.9407 82° East  Level FlightAware Approximate
Mon 04:40:00 AM 67.8368 -64.5882 83° East  Level FlightAware Approximate
Mon 04:41:00 AM 67.8526 -64.2352 83° East  Level FlightAware Approximate
Mon 04:42:00 AM 67.8677 -63.8818 83° East  Level FlightAware Approximate
Mon 04:43:00 AM 67.8820 -63.5279 84° East  Level FlightAware Approximate
Mon 04:44:00 AM 67.8956 -63.1736 84° East  Level FlightAware Approximate
Mon 04:45:00 AM 67.9083 -62.8189 84° East  Level FlightAware Approximate
Mon 04:46:00 AM 67.9203 -62.4638 85° East  Level FlightAware Approximate
Mon 04:47:00 AM 67.9316 -62.1083 85° East  Level FlightAware Approximate
Mon 04:48:00 AM 67.9421 -61.7526 85° East  Level FlightAware Approximate
Mon 04:49:00 AM 67.9518 -61.3965 86° East  Level FlightAware Approximate
Mon 04:50:00 AM 67.9607 -61.0401 86° East  Level FlightAware Approximate
Mon 04:51:00 AM 67.9844 -60.7053 86° East  Level FlightAware Approximate
Mon 04:52:00 AM 67.9927 -60.3484 86° East  Level FlightAware Approximate
Mon 04:53:00 AM 68.0003 -59.9911 85° East  Level FlightAware Approximate
Mon 04:54:00 AM 68.0107 -59.6343 85° East  Level FlightAware Approximate
Mon 04:55:00 AM 68.0204 -59.2772 86° East  Level FlightAware Approximate
Mon 04:56:00 AM 68.0293 -58.9197 86° East  Level FlightAware Approximate
Mon 04:57:00 AM 68.0374 -58.5620 86° East  Level FlightAware Approximate
Mon 04:58:00 AM 68.0447 -58.2041 87° East  Level FlightAware Approximate
Mon 04:59:00 AM 68.0513 -57.8459 87° East  Level FlightAware Approximate
Mon 05:00:00 AM 68.0571 -57.4876 87° East  Level FlightAware Approximate
Mon 05:01:00 AM 68.0621 -57.1291 88° East  Level FlightAware Approximate
Mon 05:02:00 AM 68.0663 -56.7704 88° East  Level FlightAware Approximate
Mon 05:03:00 AM 68.0697 -56.4116 88° East  Level FlightAware Approximate
Mon 05:04:00 AM 68.0724 -56.0527 89° East  Level FlightAware Approximate
Mon 05:05:00 AM 68.0743 -55.6938 89° East  Level FlightAware Approximate
Mon 05:06:00 AM 68.0754 -55.3348 89° East  Level FlightAware Approximate
Mon 05:07:00 AM 68.0758 -54.9758 90° East  Level FlightAware Approximate
Mon 05:08:00 AM 68.0753 -54.6168 90° East  Level FlightAware Approximate
Mon 05:09:00 AM 68.0741 -54.2578 90° East  Level FlightAware Approximate
Mon 05:10:00 AM 68.0721 -53.8988 91° East  Level FlightAware Approximate
Mon 05:11:00 AM 68.0693 -53.5400 91° East  Level FlightAware Approximate
Mon 05:12:00 AM 68.0658 -53.1812 91° East  Level FlightAware Approximate
Mon 05:13:00 AM 68.0614 -52.8226 92° East  Level FlightAware Approximate
Mon 05:14:00 AM 68.0563 -52.4641 92° East  Level FlightAware Approximate
Mon 05:15:00 AM 68.0504 -52.1058 92° East  Level FlightAware Approximate
Mon 05:16:00 AM 68.0438 -51.7476 93° East  Level FlightAware Approximate
Mon 05:17:00 AM 68.0363 -51.3897 93° East  Level FlightAware Approximate
Mon 05:18:00 AM 68.0281 -51.0321 93° East  Level FlightAware Approximate
Mon 05:19:00 AM 68.0191 -50.6746 94° East  Level FlightAware Approximate
Mon 05:20:00 AM 68.0093 -50.3175 94° East  Level FlightAware Approximate
Mon 05:21:00 AM 67.9974 -49.9612 100° East  Level FlightAware Approximate
Mon 05:22:00 AM 67.9737 -49.6092 100° East  Level FlightAware Approximate
Mon 05:23:00 AM 67.9493 -49.2580 100° East  Level FlightAware Approximate
Mon 05:24:00 AM 67.9241 -48.9075 101° East  Level FlightAware Approximate
Mon 05:25:00 AM 67.8981 -48.5577 101° East  Level FlightAware Approximate
Mon 05:26:00 AM 67.8714 -48.2088 101° East  Level FlightAware Approximate
Mon 05:27:00 AM 67.8440 -47.8607 102° East  Level FlightAware Approximate
Mon 05:28:00 AM 67.8158 -47.5134 102° East  Level FlightAware Approximate
Mon 05:29:00 AM 67.7869 -47.1669 102° East  Level FlightAware Approximate
Mon 05:30:00 AM 67.7573 -46.8213 103° East  Level FlightAware Approximate
Mon 05:31:00 AM 67.7269 -46.4766 103° East  Level FlightAware Approximate
Mon 05:32:00 AM 67.6958 -46.1328 103° East  Level FlightAware Approximate
Mon 05:33:00 AM 67.6640 -45.7899 104° East  Level FlightAware Approximate
Mon 05:34:00 AM 67.6315 -45.4480 104° East  Level FlightAware Approximate
Mon 05:35:00 AM 67.5982 -45.1070 104° East  Level FlightAware Approximate
Mon 05:36:00 AM 67.5643 -44.7669 105° East  Level FlightAware Approximate
Mon 05:37:00 AM 67.5296 -44.4279 105° East  Level FlightAware Approximate
Mon 05:38:00 AM 67.4942 -44.0899 105° East  Level FlightAware Approximate
Mon 05:39:00 AM 67.4582 -43.7528 105° East  Level FlightAware Approximate
Mon 05:40:00 AM 67.4214 -43.4168 106° East  Level FlightAware Approximate
Mon 05:41:00 AM 67.3839 -43.0819 106° East  Level FlightAware Approximate
Mon 05:42:00 AM 67.3457 -42.7480 106° East  Level FlightAware Approximate
Mon 05:43:00 AM 67.3069 -42.4152 107° East  Level FlightAware Approximate
Mon 05:44:00 AM 67.2673 -42.0835 107° East  Level FlightAware Approximate
Mon 05:45:00 AM 67.2271 -41.7528 107° East  Level FlightAware Approximate
Mon 05:46:00 AM 67.1862 -41.4233 108° East  Level FlightAware Approximate
Mon 05:47:00 AM 67.1446 -41.0949 108° East  Level FlightAware Approximate
Mon 05:48:00 AM 67.1023 -40.7677 108° East  Level FlightAware Approximate
Mon 05:49:00 AM 67.0594 -40.4416 109° East  Level FlightAware Approximate
Mon 05:50:00 AM 67.0158 -40.1166 109° East  Level FlightAware Approximate
Mon 05:51:00 AM 66.9857 -39.7835 99° East  Level FlightAware Approximate
Mon 05:52:00 AM 66.9629 -39.4458 100° East  Level FlightAware Approximate
Mon 05:53:00 AM 66.9393 -39.1087 100° East  Level FlightAware Approximate
Mon 05:54:00 AM 66.9151 -38.7723 100° East  Level FlightAware Approximate
Mon 05:55:00 AM 66.8901 -38.4366 101° East  Level FlightAware Approximate
Mon 05:56:00 AM 66.8644 -38.1016 101° East  Level FlightAware Approximate
Mon 05:57:00 AM 66.8380 -37.7673 101° East  Level FlightAware Approximate
Mon 05:58:00 AM 66.8109 -37.4337 102° East  Level FlightAware Approximate
Mon 05:59:00 AM 66.7831 -37.1008 102° East  Level FlightAware Approximate
Mon 06:00:00 AM 66.7546 -36.7687 102° East  Level FlightAware Approximate
Mon 06:01:00 AM 66.7254 -36.4375 102° East  Level FlightAware Approximate
Mon 06:02:00 AM 66.6955 -36.1069 103° East  Level FlightAware Approximate
Mon 06:03:00 AM 66.6649 -35.7772 103° East  Level FlightAware Approximate
Mon 06:04:00 AM 66.6337 -35.4484 103° East  Level FlightAware Approximate
Mon 06:05:00 AM 66.6017 -35.1203 104° East  Level FlightAware Approximate
Mon 06:06:00 AM 66.5691 -34.7932 104° East  Level FlightAware Approximate
Mon 06:07:00 AM 66.5358 -34.4668 104° East  Level FlightAware Approximate
Mon 06:08:00 AM 66.5017 -34.1414 105° East  Level FlightAware Approximate
Mon 06:09:00 AM 66.4671 -33.8169 105° East  Level FlightAware Approximate
Mon 06:10:00 AM 66.4317 -33.4932 105° East  Level FlightAware Approximate
Mon 06:11:00 AM 66.3957 -33.1705 105° East  Level FlightAware Approximate
Mon 06:12:00 AM 66.3591 -32.8488 106° East  Level FlightAware Approximate
Mon 06:13:00 AM 66.3217 -32.5280 106° East  Level FlightAware Approximate
Mon 06:14:00 AM 66.2837 -32.2081 106° East  Level FlightAware Approximate
Mon 06:15:00 AM 66.2451 -31.8892 107° East  Level FlightAware Approximate
Mon 06:16:00 AM 66.2058 -31.5713 107° East  Level FlightAware Approximate
Mon 06:17:00 AM 66.1658 -31.2544 107° East  Level FlightAware Approximate
Mon 06:18:00 AM 66.1252 -30.9385 107° East  Level FlightAware Approximate
Mon 06:19:00 AM 66.0840 -30.6236 108° East  Level FlightAware Approximate
Mon 06:20:00 AM 66.0421 -30.3098 108° East  Level FlightAware Approximate
Mon 06:21:00 AM 65.9993 -29.9972 120° Southeast  Level FlightAware Approximate
Mon 06:22:00 AM 65.9315 -29.7134 120° Southeast  Level FlightAware Approximate
Mon 06:23:00 AM 65.8631 -29.4310 121° Southeast  Level FlightAware Approximate
Mon 06:24:00 AM 65.7942 -29.1502 121° Southeast  Level FlightAware Approximate
Mon 06:25:00 AM 65.7248 -28.8709 121° Southeast  Level FlightAware Approximate
Mon 06:26:00 AM 65.6549 -28.5931 121° Southeast  Level FlightAware Approximate
Mon 06:27:00 AM 65.5844 -28.3168 122° Southeast  Level FlightAware Approximate
Mon 06:28:00 AM 65.5135 -28.0419 122° Southeast  Level FlightAware Approximate
Mon 06:29:00 AM 65.4421 -27.7686 122° Southeast  Level FlightAware Approximate
Mon 06:30:00 AM 65.3702 -27.4968 122° Southeast  Level FlightAware Approximate
Mon 06:31:00 AM 65.2978 -27.2264 123° Southeast  Level FlightAware Approximate
Mon 06:32:00 AM 65.2249 -26.9576 123° Southeast  Level FlightAware Approximate
Mon 06:33:00 AM 65.1516 -26.6902 123° Southeast  Level FlightAware Approximate
Mon 06:34:00 AM 65.0778 -26.4243 123° Southeast  Level FlightAware Approximate
Mon 06:35:00 AM 65.0035 -26.1599 124° Southeast  Level FlightAware Approximate
Mon 06:36:00 AM 64.9287 -25.8970 124° Southeast  Level FlightAware Approximate
Mon 06:37:00 AM 64.8535 -25.6355 124° Southeast  Level FlightAware Approximate
Mon 06:38:00 AM 64.7778 -25.3755 124° Southeast  Level FlightAware Approximate
Mon 06:39:00 AM 64.7017 -25.1169 124° Southeast  Level FlightAware Approximate
Mon 06:40:00 AM 64.6251 -24.8598 125° Southeast  Level FlightAware Approximate
Mon 06:41:00 AM 64.5481 -24.6041 125° Southeast  Level FlightAware Approximate
Mon 06:42:00 AM 64.4706 -24.3499 125° Southeast  Level FlightAware Approximate
Mon 06:43:00 AM 64.3927 -24.0972 125° Southeast  Level FlightAware Approximate
Mon 06:44:00 AM 64.3144 -23.8458 126° Southeast  Level FlightAware Approximate
Mon 06:45:00 AM 64.2356 -23.5959 126° Southeast  Level FlightAware Approximate
Mon 06:46:00 AM 64.1564 -23.3474 126° Southeast  Level FlightAware Approximate
Mon 06:47:00 AM 64.0768 -23.1003 126° Southeast  Level FlightAware Approximate
Mon 06:48:00 AM 63.9968 -22.8547 127° Southeast  Level FlightAware Approximate
Mon 06:49:00 AM 63.9164 -22.6104 127° Southeast  Level FlightAware Approximate
Mon 06:50:00 AM 63.8355 -22.3676 127° Southeast  Level FlightAware Approximate
Mon 06:51:00 AM 63.7543 -22.1261 127° Southeast  Level FlightAware Approximate
Mon 06:52:00 AM 63.6726 -21.8860 127° Southeast  Level FlightAware Approximate
Mon 06:53:00 AM 63.5906 -21.6474 128° Southeast  Level FlightAware Approximate
Mon 06:54:00 AM 63.5082 -21.4100 128° Southeast  Level FlightAware Approximate
Mon 06:55:00 AM 63.4253 -21.1741 128° Southeast  Level FlightAware Approximate
Mon 06:56:00 AM 63.3421 -20.9395 128° Southeast  Level FlightAware Approximate
Mon 06:57:00 AM 63.2585 -20.7063 128° Southeast  Level FlightAware Approximate
Mon 06:58:00 AM 63.1745 -20.4744 129° Southeast  Level FlightAware Approximate
Mon 06:59:00 AM 63.0902 -20.2439 129° Southeast  Level FlightAware Approximate
Mon 07:00:00 AM 63.0055 -20.0147 129° Southeast  Level FlightAware Approximate
Mon 07:01:00 AM 62.9277 -19.7746 125° Southeast  Level FlightAware Approximate
Mon 07:02:00 AM 62.8499 -19.5349 125° Southeast  Level FlightAware Approximate
Mon 07:03:00 AM 62.7718 -19.2965 126° Southeast  Level FlightAware Approximate
Mon 07:04:00 AM 62.6933 -19.0593 126° Southeast  Level FlightAware Approximate
Mon 07:05:00 AM 62.6144 -18.8234 126° Southeast  Level FlightAware Approximate
Mon 07:06:00 AM 62.5351 -18.5888 126° Southeast  Level FlightAware Approximate
Mon 07:07:00 AM 62.4554 -18.3554 126° Southeast  Level FlightAware Approximate
Mon 07:08:00 AM 62.3753 -18.1233 127° Southeast  Level FlightAware Approximate
Mon 07:09:00 AM 62.2948 -17.8923 127° Southeast  Level FlightAware Approximate
Mon 07:10:00 AM 62.2140 -17.6627 127° Southeast  Level FlightAware Approximate
Mon 07:11:00 AM 62.1328 -17.4342 127° Southeast  Level FlightAware Approximate
Mon 07:12:00 AM 62.0511 -17.2071 128° Southeast  Level FlightAware Approximate
Mon 07:13:00 AM 61.9690 -16.9813 128° Southeast  Level FlightAware Approximate
Mon 07:14:00 AM 61.8865 -16.7568 128° Southeast  Level FlightAware Approximate
Mon 07:15:00 AM 61.8037 -16.5335 128° Southeast  Level FlightAware Approximate
Mon 07:16:00 AM 61.7204 -16.3113 128° Southeast  Level FlightAware Approximate
Mon 07:17:00 AM 61.6369 -16.0904 128° Southeast  Level FlightAware Approximate
Mon 07:18:00 AM 61.5530 -15.8706 129° Southeast  Level FlightAware Approximate
Mon 07:19:00 AM 61.4689 -15.6517 129° Southeast  Level FlightAware Approximate
Mon 07:20:00 AM 61.3845 -15.4340 129° Southeast  Level FlightAware Approximate
Mon 07:21:00 AM 61.2998 -15.2174 129° Southeast  Level FlightAware Approximate
Mon 07:22:00 AM 61.2146 -15.0021 129° Southeast  Level FlightAware Approximate
Mon 07:23:00 AM 61.1292 -14.7879 130° Southeast  Level FlightAware Approximate
Mon 07:24:00 AM 61.0434 -14.5748 130° Southeast  Level FlightAware Approximate
Mon 07:25:00 AM 60.9573 -14.3629 130° Southeast  Level FlightAware Approximate
Mon 07:26:00 AM 60.8708 -14.1522 130° Southeast  Level FlightAware Approximate
Mon 07:27:00 AM 60.7841 -13.9425 130° Southeast  Level FlightAware Approximate
Mon 07:28:00 AM 60.6970 -13.7341 130° Southeast  Level FlightAware Approximate
Mon 07:29:00 AM 60.6095 -13.5267 131° Southeast  Level FlightAware Approximate
Mon 07:30:00 AM 60.5218 -13.3205 131° Southeast  Level FlightAware Approximate
Mon 07:31:00 AM 60.4337 -13.1154 131° Southeast  Level FlightAware Approximate
Mon 07:32:00 AM 60.3454 -12.9114 131° Southeast  Level FlightAware Approximate
Mon 07:33:00 AM 60.2567 -12.7085 131° Southeast  Level FlightAware Approximate
Mon 07:34:00 AM 60.1677 -12.5067 132° Southeast  Level FlightAware Approximate
Mon 07:35:00 AM 60.0784 -12.3060 132° Southeast  Level FlightAware Approximate
Mon 07:36:00 AM 59.9888 -12.1064 132° Southeast  Level FlightAware Approximate
Mon 07:37:00 AM 59.8989 -11.9079 132° Southeast  Level FlightAware Approximate
Mon 07:38:00 AM 59.8087 -11.7104 132° Southeast  Level FlightAware Approximate
Mon 07:39:00 AM 59.7182 -11.5140 132° Southeast  Level FlightAware Approximate
Mon 07:40:00 AM 59.6274 -11.3187 133° Southeast  Level FlightAware Approximate
Mon 07:41:00 AM 59.5363 -11.1244 133° Southeast  Level FlightAware Approximate
Mon 07:42:00 AM 59.4450 -10.9312 133° Southeast  Level FlightAware Approximate
Mon 07:43:00 AM 59.3533 -10.7390 133° Southeast  Level FlightAware Approximate
Mon 07:44:00 AM 59.2614 -10.5478 133° Southeast  Level FlightAware Approximate
Mon 07:44:02 AM 58.4738 -8.9857 133° Southeast 488 562 45,000  Level FlightAware UK
Mon 07:44:32 AM 58.4215 -8.8953 138° Southeast 488 562 45,000  Level FlightAware UK
Mon 07:45:02 AM 58.3690 -8.8057 138° Southeast 486 559 45,000  Level FlightAware UK
Mon 07:45:32 AM 58.3169 -8.7164 138° Southeast 486 559 45,000  Level FlightAware UK
Mon 07:46:02 AM 58.2648 -8.6278 138° Southeast 486 559 45,000  Level FlightAware UK
Mon 07:46:32 AM 58.2125 -8.5397 138° Southeast 486 559 45,000  Level FlightAware UK
Mon 07:47:02 AM 58.1597 -8.4493 138° Southeast 488 562 45,000  Level FlightAware UK
Mon 07:47:32 AM 58.1069 -8.3603 138° Southeast 486 559 45,000  Level FlightAware UK
Mon 07:48:02 AM 58.0544 -8.2727 139° Southeast 486 559 45,000  Level FlightAware UK
Mon 07:48:38 AM 57.9913 -8.1679 139° Southeast 486 559 45,000  Level FlightAware UK
Mon 07:49:08 AM 57.9385 -8.0803 139° Southeast 490 564 45,000  Level FlightAware UK
Mon 07:49:38 AM 57.8856 -7.9931 139° Southeast 488 562 45,000  Level FlightAware UK
Mon 07:50:08 AM 57.8329 -7.9063 139° Southeast 484 557 45,000  Level FlightAware UK
Mon 07:50:38 AM 57.7804 -7.8208 139° Southeast 486 559 45,000  Level FlightAware UK
Mon 07:51:08 AM 57.7281 -7.7355 139° Southeast 484 557 45,000  Level FlightAware UK
Mon 07:51:38 AM 57.6755 -7.6502 139° Southeast 486 559 45,000  Level FlightAware UK
Mon 07:52:09 AM 57.6224 -7.5644 139° Southeast 484 557 45,000  Level FlightAware UK
Mon 07:52:39 AM 57.5695 -7.4790 139° Southeast 484 557 45,000  Level FlightAware UK
Mon 07:53:09 AM 57.5162 -7.3938 139° Southeast 488 562 45,000  Level FlightAware UK
Mon 07:53:39 AM 57.4626 -7.3085 139° Southeast 490 564 45,000  Level FlightAware UK
Mon 07:54:09 AM 57.4091 -7.2234 139° Southeast 486 559 45,000  Level FlightAware UK
Mon 07:54:39 AM 57.3558 -7.1388 139° Southeast 484 557 45,000  Level FlightAware UK
Mon 07:55:15 AM 57.2917 -7.0375 139° Southeast 486 559 45,000  Level FlightAware UK
Mon 07:55:45 AM 57.2378 -6.9528 140° Southeast 490 564 45,000  Level FlightAware UK
Mon 07:56:27 AM 57.1618 -6.8347 140° Southeast 488 562 45,000  Level FlightAware UK
Mon 07:56:57 AM 57.1078 -6.7508 140° Southeast 484 557 45,000  Level FlightAware UK
Mon 07:57:27 AM 57.0540 -6.6673 140° Southeast 486 559 45,000  Level FlightAware UK
Mon 07:57:57 AM 57.0000 -6.5842 140° Southeast 486 559 45,000  Level FlightAware UK
Mon 07:58:33 AM 56.9351 -6.4845 140° Southeast 488 562 45,000  Level FlightAware UK
Mon 07:59:33 AM 56.8268 -6.3189 140° Southeast 484 557 45,000  Level FlightAware UK
Mon 08:00:09 AM 56.7619 -6.2205 140° Southeast 482 555 45,000  Level FlightAware UK
Mon 08:00:39 AM 56.7079 -6.1392 140° Southeast 484 557 45,000  Level FlightAware UK
Mon 08:01:09 AM 56.6534 -6.0572 140° Southeast 494 568 45,000  Level FlightAware UK
Mon 08:01:39 AM 56.5986 -5.9751 140° Southeast 492 566 45,000  Level FlightAware UK
Mon 08:02:45 AM 56.4796 -5.7979 141° Southeast 486 559 45,000  Level FlightAware UK
Mon 08:03:15 AM 56.4255 -5.7181 141° Southeast 484 557 45,000  Level FlightAware UK
Mon 08:03:51 AM 56.3604 -5.6221 141° Southeast 488 562 45,000  Level FlightAware UK
Mon 08:04:39 AM 56.2730 -5.4936 141° Southeast 490 564 45,000  Level FlightAware UK
Mon 08:05:09 AM 56.2180 -5.4136 141° Southeast 492 566 45,000  Level FlightAware UK
Mon 08:05:39 AM 56.1633 -5.3341 141° Southeast 484 557 45,000  Level FlightAware UK
Mon 08:08:09 AM 55.8924 -4.9446 141° Southeast 486 559 45,000  Level FlightAware UK
Mon 08:08:39 AM 55.8393 -4.8693 141° Southeast 480 552 45,000  Level FlightAware UK
Mon 08:09:15 AM 55.7757 -4.7793 141° Southeast 480 552 45,000  Level FlightAware UK
Mon 08:10:15 AM 55.6675 -4.6269 142° Southeast 488 562 45,000  Level FlightAware UK
Mon 08:11:15 AM 55.5577 -4.4735 142° Southeast 496 571 45,000  Level FlightAware UK
Mon 08:12:15 AM 55.4497 -4.3232 142° Southeast 480 552 45,000  Level FlightAware UK
Mon 08:12:57 AM 55.3748 -4.2200 142° Southeast 482 555 45,000  Level FlightAware UK
Mon 08:13:27 AM 55.3209 -4.1461 142° Southeast 484 557 45,000  Level FlightAware UK
Mon 08:14:03 AM 55.2553 -4.0566 142° Southeast 488 562 45,000  Level FlightAware UK
Mon 08:15:15 AM 55.1244 -3.8784 142° Southeast 488 562 45,000  Level FlightAware UK
Mon 08:15:51 AM 55.0598 -3.7907 142° Southeast 488 562 45,000  Level FlightAware UK
Mon 08:16:21 AM 55.0063 -3.7187 142° Southeast 482 555 45,000  Level FlightAware UK
Mon 08:18:33 AM 54.7689 -3.4025 142° Southeast 488 562 45,000  Level FlightAware UK
Mon 08:19:03 AM 54.7118 -3.3362 146° Southeast 488 562 45,000  Level FlightAware UK
Mon 08:19:33 AM 54.6498 -3.2859 155° Southeast 490 564 45,000  Level FlightAware UK
Mon 08:20:15 AM 54.5640 -3.2147 154° Southeast 488 562 45,000  Level FlightAware UK
Mon 08:20:46 AM 54.5032 -3.1647 154° Southeast 482 555 45,000  Level FlightAware UK
Mon 08:21:34 AM 54.4069 -3.0866 155° Southeast 482 555 45,000  Level FlightAware UK
Mon 08:22:04 AM 54.3464 -3.0381 155° Southeast 484 557 45,000  Level FlightAware UK
Mon 08:23:10 AM 54.2119 -2.9303 155° Southeast 492 566 45,000  Level FlightAware UK
Mon 08:23:46 AM 54.1387 -2.8717 155° Southeast 486 559 45,000  Level FlightAware UK
Mon 08:24:22 AM 54.0662 -2.8137 155° Southeast 484 557 45,000  Level FlightAware UK
Mon 08:24:52 AM 54.0060 -2.7658 155° Southeast 482 555 45,000  Level FlightAware UK
Mon 08:25:22 AM 53.9455 -2.7180 155° Southeast 484 557 45,000  Level FlightAware UK
Mon 08:25:58 AM 53.8731 -2.6614 155° Southeast 486 559 45,000  Level FlightAware UK
Mon 08:26:28 AM 53.8128 -2.6139 155° Southeast 484 557 45,000 -148 Level FlightAware UK
Mon 08:28:40 AM 53.5458 -2.4067 155° Southeast 486 559 44,600 -593 Descending FlightAware UK
Mon 08:29:10 AM 53.4848 -2.3593 155° Southeast 488 562 43,400 -2,364 Descending FlightAware UK
Mon 08:29:46 AM 53.4119 -2.3031 155° Southeast 490 564 42,000 -2,417 Descending FlightAware UK
Mon 08:30:22 AM 53.3411 -2.2460 154° Southeast 486 559 40,500 -2,765 Descending FlightAware UK
Mon 08:31:28 AM 53.2102 -2.1395 154° Southeast 492 566 37,300 -2,000 Descending FlightAware UK
Mon 08:32:16 AM 53.1213 -2.0551 150° Southeast 482 555 36,700 -857 Descending FlightAware UK
Mon 08:32:52 AM 53.0577 -1.9923 149° Southeast 482 555 36,100 -2,067 Descending FlightAware UK
Mon 08:35:16 AM 52.8113 -1.7470 149° Southeast 476 548 30,500 -2,420 Descending FlightAware UK
Mon 08:35:53 AM 52.7503 -1.6894 150° Southeast 458 527 28,800 -2,750 Descending FlightAware UK
Mon 08:36:28 AM 52.6926 -1.6273 147° Southeast 452 520 27,200 -2,636 Descending FlightAware UK
Mon 08:36:59 AM 52.6444 -1.5726 145° Southeast 442 509 25,900 -2,597 Descending FlightAware UK
Mon 08:37:35 AM 52.5880 -1.5091 146° Southeast 434 499 24,300 -2,545 Descending FlightAware UK
Mon 08:38:05 AM 52.5418 -1.4579 146° Southeast 426 490 23,100 -2,250 Descending FlightAware UK
Mon 08:38:47 AM 52.4777 -1.3881 146° Southeast 414 476 21,600 -2,143 Descending FlightAware UK
Mon 08:39:29 AM 52.4132 -1.3193 147° Southeast 406 467 20,100 -1,333 Descending FlightAware UK
Mon 08:39:59 AM 52.3665 -1.2706 148° Southeast 406 467 20,000 -100 Descending FlightAware UK
Mon 08:40:29 AM 52.3201 -1.2235 148° Southeast 406 467 20,000 -1,600 Level FlightAware UK
Mon 08:41:29 AM 52.2279 -1.1305 148° Southeast 392 451 17,600 -2,706 Descending FlightAware UK
Mon 08:42:11 AM 52.1639 -1.0730 151° Southeast 380 437 15,400 -2,250 Descending FlightAware UK
Mon 08:42:41 AM 52.1172 -1.0508 164° South 346 398 14,900 -1,583 Descending FlightAware UK
Mon 08:43:23 AM 52.0573 -1.0251 165° South 318 366 13,500 -2,250 Descending FlightAware UK
Mon 08:43:53 AM 52.0183 -1.0065 164° South 302 348 12,200 -2,846 Descending FlightAware UK
Mon 08:44:41 AM 51.9577 -0.9804 165° South 296 341 9,800 -2,917 Descending FlightAware UK
Mon 08:45:05 AM 51.9287 -0.9659 163° South 288 331 8,700 -2,833 Descending FlightAware UK
Mon 08:45:53 AM 51.8987 -0.8937 124° Southeast 282 325 6,400 -1,842 Descending FlightAware UK
Mon 08:46:59 AM 51.8858 -0.7850 101° East 236 272 5,200 -789 Descending FlightAware UK
Mon 08:47:47 AM 51.8545 -0.7315 133° Southeast 208 239 4,900 -273 Descending FlightAware UK
Mon 08:48:05 AM 51.8443 -0.7139 133° Southeast 194 223 4,900 -1,000 Level FlightAware UK
Mon 08:48:29 AM 51.8333 -0.6896 126° Southeast 190 219 4,200 -957 Descending FlightAware UK
Mon 08:50:23 AM 51.8412 -0.5583 84° East 170 196 2,700 -792 Descending FlightAware UK
Mon 08:50:53 AM 51.8470 -0.5270 73° East 170 196 2,300 -800 Descending FlightAware UK
Mon 08:51:23 AM 51.8524 -0.4947 75° East 164 189 1,900 -833 Descending FlightAware UK
Mon 08:52:05 AM 51.8605 -0.4489 74° East 154 177 1,300 -800 Descending FlightAware UK
Mon 08:52:23 AM 51.8629 -0.4350 74° East 130 150 1,100 -667 Descending FlightAware UK
Mon 08:52:59 AM 51.8681 -0.4061 74° East 126 145 700 -667 Descending FlightAware UK
Mon 08:54:00 AM 51.8667 -0.3667 148° Southeast  Level FlightAware Approximate
Mon 09:01:00 AM 51.8747 -0.3683 148° Southeast  Level Estimated
Mon 09:02:00 AM 51.8747 -0.3683 148° Southeast  Level Estimated
Mon 09:03:00 AM 51.8747 -0.3683 148° Southeast  Level Estimated
Mon 09:04:00 AM 51.8747 -0.3683 148° Southeast  Level Estimated
Mon 09:05:00 AM 51.8747 -0.3683 148° Southeast  Level Estimated
Mon 09:06:00 AM 51.8747 -0.3683 148° Southeast  Level Estimated
Mon 09:07:00 AM 51.8747 -0.3683 148° Southeast  Level Estimated
Mon 09:08:00 AM 51.8747 -0.3683 148° Southeast  Level Estimated
Mon 09:09:00 AM 51.8747 -0.3683 148° Southeast  Level Estimated
Mon 09:10:00 AM 51.8747 -0.3683 148° Southeast  Level Estimated
Mon 09:11:00 AM 51.8747 -0.3683 148° Southeast  Level Estimated
Mon 09:12:00 AM 51.8747 -0.3683 148° Southeast  Level Estimated
Mon 09:13:00 AM 51.8747 -0.3683 148° Southeast  Level Estimated

Login

Don't have an account? Register now (free) for customized features, flight alerts, and more!